Palmetto State — KPSJ — position and weather

sailwx.info

Track history (hours):
 
Tides and Currents Weather Stations Pressure Air Temp Water Temp Dewpoint Dewpoint Depression Visibility Wind Speed Wind Dir Waves Ship Positions

Palmetto State

Owner: Crowley Petroleum Services, Inc., Jacksonville, FL. More information available from US FCC via Universal Licensing System and Coast Guard Vessel Documentation Center.

Last reported at 2018-Jun-15 22:14 UTC. Time now 2018-Jun-20 09:19 UTC.
Position N 29°39' W 093°19'.

Length 186 m; draft 11.3 m.

Type: Tanker. MMSI: 369225000.

Date/timePositionNaut miles runAvg speedWind from/ knotsBaromVisibWave heightAir tempDewpointWater temp
2018-Jun-15 22:14N 29°39' W 093°19'5 9.5
2018-Jun-15 21:39N 29°44' W 093°20'110.0
2018-Jun-15 21:31N 29°45' W 093°21'4 8.8
2018-Jun-15 21:00N 29°50' W 093°21'4 8.1
2018-Jun-15 20:30N 29°54' W 093°21'4 8.1
2018-Jun-15 20:00N 29°58' W 093°20'3 6.1
2018-Jun-15 19:30N 30°01' W 093°20'3 6.4
2018-Jun-15 19:00N 30°04' W 093°20'3 6.9
2018-Jun-15 18:30N 30°08' W 093°20'2 4.6
2018-Jun-15 18:00N 30°10' W 093°19'1 1.3
2018-Jun-15 17:29N 30°11' W 093°19'0 0.0
2018-Jun-15 16:59N 30°11' W 093°19'0 0.0
2018-Jun-15 16:29N 30°11' W 093°19'0 0.0
2018-Jun-15 15:59N 30°11' W 093°19'0 0.0
2018-Jun-15 15:29N 30°11' W 093°19'0 0.0
2018-Jun-15 14:59N 30°11' W 093°19'0 0.0
2018-Jun-15 14:29N 30°11' W 093°19'0 0.0
2018-Jun-15 13:59N 30°11' W 093°19'0 0.0
2018-Jun-15 13:29N 30°11' W 093°19'0 0.0
2018-Jun-15 12:59N 30°11' W 093°19'0 0.0
2018-Jun-15 12:26N 30°11' W 093°19'0 0.0
2018-Jun-15 11:59N 30°11' W 093°19'0 0.0
2018-Jun-15 11:29N 30°11' W 093°19'0 0.0
2018-Jun-15 10:59N 30°11' W 093°19'0 0.0
2018-Jun-15 10:29N 30°11' W 093°19'0 0.0
2018-Jun-15 09:56N 30°11' W 093°19'0 0.0
2018-Jun-15 09:29N 30°11' W 093°19'0 0.0
2018-Jun-15 08:56N 30°11' W 093°19'0 0.0
2018-Jun-15 08:29N 30°11' W 093°19'0 0.0
2018-Jun-15 07:59N 30°11' W 093°19'0 0.0
2018-Jun-15 07:29N 30°11' W 093°19'0 0.0
2018-Jun-15 06:59N 30°11' W 093°19'0 0.0
2018-Jun-15 06:23N 30°11' W 093°19'0 0.0
2018-Jun-15 05:59N 30°11' W 093°19'0 0.0
2018-Jun-15 05:29N 30°11' W 093°19'0 0.0
2018-Jun-15 04:59N 30°11' W 093°19'0 0.0
2018-Jun-15 04:29N 30°11' W 093°19'0 0.0
2018-Jun-15 03:56N 30°11' W 093°19'0 0.0
2018-Jun-15 03:29N 30°11' W 093°19'0 0.0
2018-Jun-15 02:59N 30°11' W 093°19'0 0.0
2018-Jun-15 02:29N 30°11' W 093°19'0 0.0
2018-Jun-15 01:59N 30°11' W 093°19'0 0.0
2018-Jun-15 01:29N 30°11' W 093°19'0 0.0
2018-Jun-15 00:59N 30°11' W 093°19'0 0.0
2018-Jun-15 00:29N 30°11' W 093°19'0 0.0
2018-Jun-14 23:59N 30°11' W 093°19'0 0.0
2018-Jun-14 23:29N 30°11' W 093°19'0 0.0
2018-Jun-14 22:59N 30°11' W 093°19'0 0.0
2018-Jun-14 22:29N 30°11' W 093°19'0 0.0
2018-Jun-14 21:59N 30°11' W 093°19'0 0.0
2018-Jun-14 21:29N 30°11' W 093°19'0 0.0
2018-Jun-14 20:59N 30°11' W 093°19'0 0.0
2018-Jun-14 20:29N 30°11' W 093°19'0 0.0
2018-Jun-14 19:59N 30°11' W 093°19'0 0.0
2018-Jun-14 19:29N 30°11' W 093°19'0 0.0
2018-Jun-14 18:59N 30°11' W 093°19'0 0.0
2018-Jun-14 18:29N 30°11' W 093°19'0 0.0
2018-Jun-14 17:59N 30°11' W 093°19'0 0.0
2018-Jun-14 17:29N 30°11' W 093°19'0 0.0
2018-Jun-14 16:59N 30°11' W 093°19'0 0.0
2018-Jun-14 16:29N 30°11' W 093°19'0 0.0
2018-Jun-14 15:59N 30°11' W 093°19'0 0.0
2018-Jun-14 15:29N 30°11' W 093°19'0 0.0
2018-Jun-14 14:59N 30°11' W 093°19'0 0.0
2018-Jun-14 14:29N 30°11' W 093°19'0 0.0
2018-Jun-14 13:59N 30°11' W 093°19'0 0.0
2018-Jun-14 13:29N 30°11' W 093°19'0 0.0
2018-Jun-14 12:59N 30°11' W 093°19'0 0.0
2018-Jun-14 12:29N 30°11' W 093°19'0 0.0
2018-Jun-14 11:59N 30°11' W 093°19'0 0.0
2018-Jun-14 11:30N 30°11' W 093°19'1 1.4
2018-Jun-14 11:00N 30°11' W 093°19'2 3.8
2018-Jun-14 10:30N 30°09' W 093°20'3 6.0
2018-Jun-14 10:00N 30°06' W 093°20'4 8.4
2018-Jun-14 09:31N 30°02' W 093°20'3 6.7
2018-Jun-14 09:01N 29°59' W 093°20'5 9.2
2018-Jun-14 08:30N 29°54' W 093°21'611.1
2018-Jun-14 08:00N 29°49' W 093°21'510.3
2018-Jun-14 07:30N 29°44' W 093°20'8 8.0
2018-Jun-14 06:30N 29°36' W 093°17'9 0.2
2018-Jun-12 13:01N 29°28' W 093°13'112.3
2018-Jun-12 12:57N 29°27' W 093°13'  
Track history (hours):
 
Tides and Currents Weather Stations Pressure Air Temp Water Temp Dewpoint Dewpoint Depression Visibility Wind Speed Wind Dir Waves Ship Positions

Palmetto State

Owner: Crowley Petroleum Services, Inc., Jacksonville, FL. More information available from US FCC via Universal Licensing System and Coast Guard Vessel Documentation Center.

Last reported at 2018-Jun-15 22:14 UTC. Time now 2018-Jun-20 09:19 UTC.
Position N 29°39' W 093°19'.

Length 186 m; draft 11.3 m.

Type: Tanker. MMSI: 369225000.

Date/timePositionNaut miles runAvg speedWind from/ knotsBaromVisibWave heightAir tempDewpointWater temp
2018-Jun-15 22:14N 29°39' W 093°19'5 9.5
2018-Jun-15 21:39N 29°44' W 093°20'110.0
2018-Jun-15 21:31N 29°45' W 093°21'4 8.8
2018-Jun-15 21:00N 29°50' W 093°21'4 8.1
2018-Jun-15 20:30N 29°54' W 093°21'4 8.1
2018-Jun-15 20:00N 29°58' W 093°20'3 6.1
2018-Jun-15 19:30N 30°01' W 093°20'3 6.4
2018-Jun-15 19:00N 30°04' W 093°20'3 6.9
2018-Jun-15 18:30N 30°08' W 093°20'2 4.6
2018-Jun-15 18:00N 30°10' W 093°19'1 1.3
2018-Jun-15 17:29N 30°11' W 093°19'0 0.0
2018-Jun-15 16:59N 30°11' W 093°19'0 0.0
2018-Jun-15 16:29N 30°11' W 093°19'0 0.0
2018-Jun-15 15:59N 30°11' W 093°19'0 0.0
2018-Jun-15 15:29N 30°11' W 093°19'0 0.0
2018-Jun-15 14:59N 30°11' W 093°19'0 0.0
2018-Jun-15 14:29N 30°11' W 093°19'0 0.0
2018-Jun-15 13:59N 30°11' W 093°19'0 0.0
2018-Jun-15 13:29N 30°11' W 093°19'0 0.0
2018-Jun-15 12:59N 30°11' W 093°19'0 0.0
2018-Jun-15 12:26N 30°11' W 093°19'0 0.0
2018-Jun-15 11:59N 30°11' W 093°19'0 0.0
2018-Jun-15 11:29N 30°11' W 093°19'0 0.0
2018-Jun-15 10:59N 30°11' W 093°19'0 0.0
2018-Jun-15 10:29N 30°11' W 093°19'0 0.0
2018-Jun-15 09:56N 30°11' W 093°19'0 0.0
2018-Jun-15 09:29N 30°11' W 093°19'0 0.0
2018-Jun-15 08:56N 30°11' W 093°19'0 0.0
2018-Jun-15 08:29N 30°11' W 093°19'0 0.0
2018-Jun-15 07:59N 30°11' W 093°19'0 0.0
2018-Jun-15 07:29N 30°11' W 093°19'0 0.0
2018-Jun-15 06:59N 30°11' W 093°19'0 0.0
2018-Jun-15 06:23N 30°11' W 093°19'0 0.0
2018-Jun-15 05:59N 30°11' W 093°19'0 0.0
2018-Jun-15 05:29N 30°11' W 093°19'0 0.0
2018-Jun-15 04:59N 30°11' W 093°19'0 0.0
2018-Jun-15 04:29N 30°11' W 093°19'0 0.0
2018-Jun-15 03:56N 30°11' W 093°19'0 0.0
2018-Jun-15 03:29N 30°11' W 093°19'0 0.0
2018-Jun-15 02:59N 30°11' W 093°19'0 0.0
2018-Jun-15 02:29N 30°11' W 093°19'0 0.0
2018-Jun-15 01:59N 30°11' W 093°19'0 0.0
2018-Jun-15 01:29N 30°11' W 093°19'0 0.0
2018-Jun-15 00:59N 30°11' W 093°19'0 0.0
2018-Jun-15 00:29N 30°11' W 093°19'0 0.0
2018-Jun-14 23:59N 30°11' W 093°19'0 0.0
2018-Jun-14 23:29N 30°11' W 093°19'0 0.0
2018-Jun-14 22:59N 30°11' W 093°19'0 0.0
2018-Jun-14 22:29N 30°11' W 093°19'0 0.0
2018-Jun-14 21:59N 30°11' W 093°19'0 0.0
2018-Jun-14 21:29N 30°11' W 093°19'0 0.0
2018-Jun-14 20:59N 30°11' W 093°19'0 0.0
2018-Jun-14 20:29N 30°11' W 093°19'0 0.0
2018-Jun-14 19:59N 30°11' W 093°19'0 0.0
2018-Jun-14 19:29N 30°11' W 093°19'0 0.0
2018-Jun-14 18:59N 30°11' W 093°19'0 0.0
2018-Jun-14 18:29N 30°11' W 093°19'0 0.0
2018-Jun-14 17:59N 30°11' W 093°19'0 0.0
2018-Jun-14 17:29N 30°11' W 093°19'0 0.0
2018-Jun-14 16:59N 30°11' W 093°19'0 0.0
2018-Jun-14 16:29N 30°11' W 093°19'0 0.0
2018-Jun-14 15:59N 30°11' W 093°19'0 0.0
2018-Jun-14 15:29N 30°11' W 093°19'0 0.0
2018-Jun-14 14:59N 30°11' W 093°19'0 0.0
2018-Jun-14 14:29N 30°11' W 093°19'0 0.0
2018-Jun-14 13:59N 30°11' W 093°19'0 0.0
2018-Jun-14 13:29N 30°11' W 093°19'0 0.0
2018-Jun-14 12:59N 30°11' W 093°19'0 0.0
2018-Jun-14 12:29N 30°11' W 093°19'0 0.0
2018-Jun-14 11:59N 30°11' W 093°19'0 0.0
2018-Jun-14 11:30N 30°11' W 093°19'1 1.4
2018-Jun-14 11:00N 30°11' W 093°19'2 3.8
2018-Jun-14 10:30N 30°09' W 093°20'3 6.0
2018-Jun-14 10:00N 30°06' W 093°20'4 8.4
2018-Jun-14 09:31N 30°02' W 093°20'3 6.7
2018-Jun-14 09:01N 29°59' W 093°20'5 9.2
2018-Jun-14 08:30N 29°54' W 093°21'611.1
2018-Jun-14 08:00N 29°49' W 093°21'510.3
2018-Jun-14 07:30N 29°44' W 093°20'8 8.0
2018-Jun-14 06:30N 29°36' W 093°17'9 0.2
2018-Jun-12 13:01N 29°28' W 093°13'112.3
2018-Jun-12 12:57N 29°27' W 093°13'  

Dump ship's entire track history